• Join FlightAware (Why Join?)
  • Login
  • US Flag 
 
09:27PM EST


 

Airport Tracker/Info


-or-


 

Live Flight TrackerFlight Track Log ✈ FLG3729 ✈ 10-Aug-2013 ✈ KALB - KDTW

Flight Track Log - Related Links

Times and Time Zones

All times are in EDT time to prevent confusion due to time zone crossing. See the FLG3729 flight status page for this flight to view local times or setup timezone preferences in your user account.

Time Position Orientation Groundspeed Altitude Reporting Facility
EDT Latitude Longitude Course Direction KTS MPH feet Rate Location/Type
06:04AM 42.7714 -73.8061 345° North 154 177 1,400  Level Boston Center
06:05AM 42.8047 -73.8183 345° North 176 203 2,400 1,860 Climbing Boston Center
06:06AM 42.8686 -73.8678 330° Northwest 238 274 5,300 2,460 Climbing Boston Center
06:07AM 42.9261 -73.9344 320° Northwest 250 288 8,200 2,580 Climbing Boston Center
06:08AM 42.9647 -74.0061 306° West 251 289 10,600 1,800 Climbing Boston Center
06:09AM 43.0156 -74.0983 307° West 281 323 11,800 1,320 Climbing Boston Center
06:10AM 43.0286 -74.2039 280° West 288 331 13,300 1,560 Climbing Boston Center
06:11AM 43.0392 -74.3319 276° West 312 359 15,000 1,440 Climbing Boston Center
06:12AM 43.0475 -74.4431 276° West 323 372 16,200 1,380 Climbing Boston Center
06:13AM 43.0556 -74.5769 275° West 323 372 17,800 1,320 Climbing Boston Center
06:14AM 43.0639 -74.6853 276° West 328 377 18,900 840 Climbing Boston Center
06:15AM 43.0756 -74.8278 276° West 335 386 19,500 540 Climbing Boston Center
06:16AM 43.0833 -74.9589 275° West 340 391 20,000 480 Climbing Boston Center
06:17AM 43.0925 -75.0986 275° West 355 409 20,500 480 Climbing Boston Center
06:18AM 43.1019 -75.2356 275° West 366 421 21,000 540 Climbing Boston Center
06:19AM 43.1108 -75.3725 275° West 371 427 21,600 840 Climbing Boston Center
06:20AM 43.1197 -75.5122 275° West 371 427 22,700 1,200 Climbing Boston Center
06:21AM 43.1286 -75.6436 275° West 366 421 24,000 1,200 Climbing Boston Center
06:22AM 43.1375 -75.7722 275° West 354 407 25,100 780 Climbing Boston Center
06:23AM 43.1439 -75.9064 274° West 354 407 25,600 480 Climbing Boston Center
06:24AM 43.1522 -76.0406 275° West 354 407 26,100 480 Climbing Boston Center
06:27AM 43.1494 -76.3400 269° West 353 406 27,200 480 Climbing Cleveland Center
06:28AM 43.1400 -76.4800 265° West 364 419 27,800 360 Climbing Cleveland Center
06:29AM 43.1258 -76.6175 262° West 370 426 28,000 60 Climbing Cleveland Center
06:30AM 43.1119 -76.7578 262° West 370 426 28,000  Level Cleveland Center
06:31AM 43.0978 -76.9039 262° West 375 432 28,000 120 Level Cleveland Center
06:32AM 43.0878 -77.0494 265° West 385 443 28,300 360 Climbing Cleveland Center
06:33AM 43.0756 -77.1950 263° West 390 449 28,800 480 Climbing Cleveland Center
06:34AM 43.0608 -77.3353 262° West 390 449 29,300 480 Climbing Cleveland Center
06:35AM 43.0458 -77.4781 262° West 390 449 29,800 300 Climbing Cleveland Center
06:36AM 43.0350 -77.6150 264° West 385 443 30,000 60 Climbing Cleveland Center
06:37AM 43.0217 -77.7575 263° West 385 443 30,000  Level Cleveland Center
06:38AM 43.0064 -77.9003 262° West 385 443 30,000  Level Cleveland Center
06:39AM 42.9931 -78.0483 263° West 390 449 30,000  Level Cleveland Center
06:40AM 42.9775 -78.1939 262° West 390 449 30,000  Level Cleveland Center
06:41AM 42.9617 -78.3419 262° West 390 449 30,000  Level Cleveland Center
06:42AM 42.9475 -78.4786 262° West 384 442 30,000  Level Cleveland Center
06:43AM 42.9333 -78.6208 262° West 384 442 30,000  Level Cleveland Center
06:44AM 42.9147 -78.7575 260° West 384 442 30,000  Level Cleveland Center
06:45AM 42.8939 -78.9028 259° West 384 442 30,000  Level Cleveland Center
06:46AM 42.8711 -79.0450 258° West 384 442 30,000  Level Cleveland Center
06:47AM 42.8539 -79.1814 260° West 384 442 30,000  Level Cleveland Center
06:48AM 42.8347 -79.3233 260° West 384 442 30,000  Level Cleveland Center
06:49AM 42.8133 -79.4597 258° West 384 442 30,000  Level Cleveland Center
06:50AM 42.7936 -79.5986 259° West 378 435 30,000  Level Cleveland Center
06:51AM 42.7697 -79.7375 257° West 378 435 30,000 -120 Level Cleveland Center
06:52AM 42.7519 -79.8819 261° West 373 429 29,800 -600 Descending Cleveland Center
06:53AM 42.7444 -80.0347 266° West 397 457 28,900 -720 Descending Cleveland Center
06:54AM 42.7367 -80.1875 266° West 408 470 28,400 -480 Descending Cleveland Center
06:55AM 42.7267 -80.3542 265° West 408 470 28,000 -240 Descending Cleveland Center
06:56AM 42.7250 -80.5153 269° West 413 475 28,000 -120 Level Cleveland Center
06:57AM 42.7186 -80.6622 267° West 402 463 27,800 -780 Descending Cleveland Center
06:58AM 42.7100 -80.8092 265° West 402 463 26,500 -1,380 Descending Cleveland Center
06:59AM 42.6992 -80.9506 264° West 397 457 25,100 -1,440 Descending Cleveland Center
07:00AM 42.6842 -81.0886 262° West 379 436 23,700 -1,440 Descending Cleveland Center
07:01AM 42.6689 -81.2214 261° West 365 420 22,300 -1,320 Descending Cleveland Center
07:02AM 42.6556 -81.3456 262° West 346 398 21,100 -1,140 Descending Cleveland Center
07:03AM 42.6403 -81.4694 261° West 346 398 20,100 -600 Descending Cleveland Center
07:04AM 42.6244 -81.5961 260° West 341 392 20,000 -60 Descending Cleveland Center
07:05AM 42.6089 -81.7200 260° West 341 392 20,000  Level Cleveland Center
07:06AM 42.5953 -81.8297 260° West 341 392 20,000 -60 Level Cleveland Center
07:07AM 42.5811 -81.9564 261° West 341 392 19,900 -1,020 Descending Cleveland Center
07:08AM 42.5650 -82.0800 260° West 341 392 18,000 -1,800 Descending Cleveland Center
07:09AM 42.5531 -82.2011 262° West 330 380 16,400 -1,800 Descending Cleveland Center
07:09AM 42.5433 -82.2881 261° West 315 362 15,100 -1,680 Descending Cleveland Center
07:10AM 42.5250 -82.4117 259° West 311 358 13,500 -1,380 Descending Cleveland Center
07:12AM 42.5081 -82.5436 260° West 303 349 12,100 -960 Descending Cleveland Center
07:12AM 42.4817 -82.6214 245° Southwest 306 352 11,700 -780 Descending Cleveland Center
07:13AM 42.4467 -82.7217 245° Southwest 270 311 10,700 -1,140 Descending Cleveland Center
07:15AM 42.4278 -82.8336 257° West 242 278 9,300 -1,260 Descending Cleveland Center
07:15AM 42.4303 -82.9125 272° West 242 278 8,100 -1,140 Descending Cleveland Center
07:16AM 42.4347 -83.0083 274° West 245 282 7,100 -660 Descending Cleveland Center
07:18AM 42.4203 -83.0922 257° West 212 244 6,800 -780 Descending Cleveland Center
07:18AM 42.3917 -83.1614 241° Southwest 215 247 5,600 -1,320 Descending Cleveland Center
07:19AM 42.3611 -83.2189 234° Southwest 197 227 4,300 -1,320 Descending Cleveland Center
07:21AM 42.3122 -83.2675 216° Southwest 190 219 2,800 -1,200 Descending Cleveland Center
07:21AM 42.2739 -83.2967 209° Southwest 150 173 1,900 -900 Descending Cleveland Center
07:23AM 42.2317 -83.3258 207° Southwest 145 167 1,000 -780 Descending Cleveland Center
07:25AM 42.2124 -83.3534 217° Southwest  Level Estimated